sensor_id;sensor_type;location;lat;lon;timestamp;P1;durP1;ratioP1;P2;durP2;ratioP2
22007;SDS011;11168;56.976;24.168;2023-05-07T00:00:35;4.00;;;2.70;;
22007;SDS011;11168;56.976;24.168;2023-05-07T00:03:03;6.07;;;2.58;;
22007;SDS011;11168;56.976;24.168;2023-05-07T00:05:30;3.92;;;2.30;;
22007;SDS011;11168;56.976;24.168;2023-05-07T00:07:58;4.13;;;2.50;;
22007;SDS011;11168;56.976;24.168;2023-05-07T00:10:25;5.28;;;2.60;;
22007;SDS011;11168;56.976;24.168;2023-05-07T00:12:53;6.75;;;2.97;;
22007;SDS011;11168;56.976;24.168;2023-05-07T00:15:20;6.45;;;2.40;;
22007;SDS011;11168;56.976;24.168;2023-05-07T00:17:48;4.72;;;2.58;;
22007;SDS011;11168;56.976;24.168;2023-05-07T00:20:15;3.45;;;2.38;;
22007;SDS011;11168;56.976;24.168;2023-05-07T00:22:42;5.15;;;2.53;;
22007;SDS011;11168;56.976;24.168;2023-05-07T00:25:10;8.98;;;2.15;;
22007;SDS011;11168;56.976;24.168;2023-05-07T00:27:37;4.90;;;2.13;;
22007;SDS011;11168;56.976;24.168;2023-05-07T00:30:05;4.82;;;2.40;;
22007;SDS011;11168;56.976;24.168;2023-05-07T00:32:32;5.00;;;2.33;;
22007;SDS011;11168;56.976;24.168;2023-05-07T00:34:59;3.72;;;2.28;;
22007;SDS011;11168;56.976;24.168;2023-05-07T00:37:27;4.03;;;2.30;;
22007;SDS011;11168;56.976;24.168;2023-05-07T00:39:54;5.47;;;2.47;;
22007;SDS011;11168;56.976;24.168;2023-05-07T00:42:21;4.03;;;2.38;;
22007;SDS011;11168;56.976;24.168;2023-05-07T00:44:49;4.93;;;2.50;;
22007;SDS011;11168;56.976;24.168;2023-05-07T00:47:17;11.55;;;2.40;;
22007;SDS011;11168;56.976;24.168;2023-05-07T00:49:44;3.65;;;2.88;;
22007;SDS011;11168;56.976;24.168;2023-05-07T00:52:15;6.00;;;2.90;;
22007;SDS011;11168;56.976;24.168;2023-05-07T00:54:43;5.53;;;2.55;;
22007;SDS011;11168;56.976;24.168;2023-05-07T00:57:10;5.05;;;2.83;;
22007;SDS011;11168;56.976;24.168;2023-05-07T00:59:38;6.88;;;2.60;;
22007;SDS011;11168;56.976;24.168;2023-05-07T01:02:07;5.35;;;2.60;;
22007;SDS011;11168;56.976;24.168;2023-05-07T01:04:34;5.93;;;2.60;;
22007;SDS011;11168;56.976;24.168;2023-05-07T01:07:02;3.55;;;2.45;;
22007;SDS011;11168;56.976;24.168;2023-05-07T01:09:30;3.88;;;2.38;;
22007;SDS011;11168;56.976;24.168;2023-05-07T01:11:58;7.90;;;2.50;;
22007;SDS011;11168;56.976;24.168;2023-05-07T01:14:25;4.70;;;2.90;;
22007;SDS011;11168;56.976;24.168;2023-05-07T01:16:53;5.85;;;2.90;;
22007;SDS011;11168;56.976;24.168;2023-05-07T01:19:21;6.53;;;2.67;;
22007;SDS011;11168;56.976;24.168;2023-05-07T01:21:49;4.03;;;2.55;;
22007;SDS011;11168;56.976;24.168;2023-05-07T01:24:18;6.32;;;2.55;;
22007;SDS011;11168;56.976;24.168;2023-05-07T01:26:45;6.32;;;2.70;;
22007;SDS011;11168;56.976;24.168;2023-05-07T01:29:13;4.40;;;2.50;;
22007;SDS011;11168;56.976;24.168;2023-05-07T01:31:40;5.80;;;2.40;;
22007;SDS011;11168;56.976;24.168;2023-05-07T01:34:09;5.70;;;2.25;;
22007;SDS011;11168;56.976;24.168;2023-05-07T01:36:38;6.22;;;2.70;;
22007;SDS011;11168;56.976;24.168;2023-05-07T01:39:06;4.65;;;2.10;;
22007;SDS011;11168;56.976;24.168;2023-05-07T01:41:34;3.90;;;2.42;;
22007;SDS011;11168;56.976;24.168;2023-05-07T01:44:01;8.45;;;2.55;;
22007;SDS011;11168;56.976;24.168;2023-05-07T01:46:31;3.88;;;2.10;;
22007;SDS011;11168;56.976;24.168;2023-05-07T01:48:58;3.33;;;2.00;;
22007;SDS011;11168;56.976;24.168;2023-05-07T01:51:26;5.53;;;1.90;;
22007;SDS011;11168;56.976;24.168;2023-05-07T01:53:53;5.10;;;2.72;;
22007;SDS011;11168;56.976;24.168;2023-05-07T01:56:21;4.70;;;2.22;;
22007;SDS011;11168;56.976;24.168;2023-05-07T01:58:49;6.32;;;2.05;;
22007;SDS011;11168;56.976;24.168;2023-05-07T02:01:17;6.00;;;2.10;;
22007;SDS011;11168;56.976;24.168;2023-05-07T02:03:45;4.18;;;2.30;;
22007;SDS011;11168;56.976;24.168;2023-05-07T02:06:13;2.97;;;2.03;;
22007;SDS011;11168;56.976;24.168;2023-05-07T02:08:40;3.53;;;2.03;;
22007;SDS011;11168;56.976;24.168;2023-05-07T02:11:07;5.25;;;2.40;;
22007;SDS011;11168;56.976;24.168;2023-05-07T02:13:35;4.03;;;2.15;;
22007;SDS011;11168;56.976;24.168;2023-05-07T02:16:02;7.15;;;2.35;;
22007;SDS011;11168;56.976;24.168;2023-05-07T02:18:30;3.90;;;2.03;;
22007;SDS011;11168;56.976;24.168;2023-05-07T02:20:58;3.95;;;1.90;;
22007;SDS011;11168;56.976;24.168;2023-05-07T02:23:25;6.22;;;2.00;;
22007;SDS011;11168;56.976;24.168;2023-05-07T02:25:52;6.03;;;2.05;;
22007;SDS011;11168;56.976;24.168;2023-05-07T02:28:20;2.88;;;2.05;;
22007;SDS011;11168;56.976;24.168;2023-05-07T02:30:47;6.55;;;2.50;;
22007;SDS011;11168;56.976;24.168;2023-05-07T02:33:14;6.57;;;2.40;;
22007;SDS011;11168;56.976;24.168;2023-05-07T02:35:41;5.60;;;2.53;;
22007;SDS011;11168;56.976;24.168;2023-05-07T02:38:09;3.22;;;1.90;;
22007;SDS011;11168;56.976;24.168;2023-05-07T02:40:37;3.30;;;2.15;;
22007;SDS011;11168;56.976;24.168;2023-05-07T02:43:07;7.43;;;2.83;;
22007;SDS011;11168;56.976;24.168;2023-05-07T02:45:34;4.05;;;2.70;;
22007;SDS011;11168;56.976;24.168;2023-05-07T02:48:04;4.18;;;2.83;;
22007;SDS011;11168;56.976;24.168;2023-05-07T02:50:32;6.65;;;2.70;;
22007;SDS011;11168;56.976;24.168;2023-05-07T02:53:00;6.53;;;2.60;;
22007;SDS011;11168;56.976;24.168;2023-05-07T02:55:27;7.32;;;2.30;;
22007;SDS011;11168;56.976;24.168;2023-05-07T02:57:54;5.05;;;2.40;;
22007;SDS011;11168;56.976;24.168;2023-05-07T03:00:21;7.20;;;3.33;;
22007;SDS011;11168;56.976;24.168;2023-05-07T03:02:49;6.07;;;2.28;;
22007;SDS011;11168;56.976;24.168;2023-05-07T03:05:16;4.20;;;2.22;;
22007;SDS011;11168;56.976;24.168;2023-05-07T03:07:44;3.78;;;2.42;;
22007;SDS011;11168;56.976;24.168;2023-05-07T03:10:12;7.07;;;2.30;;
22007;SDS011;11168;56.976;24.168;2023-05-07T03:12:39;4.28;;;2.55;;
22007;SDS011;11168;56.976;24.168;2023-05-07T03:15:07;4.45;;;2.42;;
22007;SDS011;11168;56.976;24.168;2023-05-07T03:17:34;5.03;;;2.50;;
22007;SDS011;11168;56.976;24.168;2023-05-07T03:20:02;5.75;;;2.60;;
22007;SDS011;11168;56.976;24.168;2023-05-07T03:22:30;5.93;;;2.30;;
22007;SDS011;11168;56.976;24.168;2023-05-07T03:24:57;5.05;;;2.58;;
22007;SDS011;11168;56.976;24.168;2023-05-07T03:27:24;4.80;;;2.30;;
22007;SDS011;11168;56.976;24.168;2023-05-07T03:29:52;5.40;;;2.60;;
22007;SDS011;11168;56.976;24.168;2023-05-07T03:32:19;3.45;;;2.20;;
22007;SDS011;11168;56.976;24.168;2023-05-07T03:34:46;7.38;;;2.83;;
22007;SDS011;11168;56.976;24.168;2023-05-07T03:37:14;4.70;;;2.50;;
22007;SDS011;11168;56.976;24.168;2023-05-07T03:39:41;3.25;;;2.25;;
22007;SDS011;11168;56.976;24.168;2023-05-07T03:42:08;4.10;;;2.30;;
22007;SDS011;11168;56.976;24.168;2023-05-07T03:44:36;4.25;;;2.25;;
22007;SDS011;11168;56.976;24.168;2023-05-07T03:47:03;4.05;;;2.22;;
22007;SDS011;11168;56.976;24.168;2023-05-07T03:49:31;5.15;;;2.40;;
22007;SDS011;11168;56.976;24.168;2023-05-07T03:51:58;5.82;;;2.28;;
22007;SDS011;11168;56.976;24.168;2023-05-07T03:54:25;5.00;;;2.13;;
22007;SDS011;11168;56.976;24.168;2023-05-07T03:56:53;3.33;;;2.22;;
22007;SDS011;11168;56.976;24.168;2023-05-07T03:59:20;4.72;;;2.40;;
22007;SDS011;11168;56.976;24.168;2023-05-07T04:01:47;3.63;;;2.10;;
22007;SDS011;11168;56.976;24.168;2023-05-07T04:04:15;8.50;;;2.30;;
22007;SDS011;11168;56.976;24.168;2023-05-07T04:06:42;2.78;;;2.00;;
22007;SDS011;11168;56.976;24.168;2023-05-07T04:09:10;3.08;;;1.92;;
22007;SDS011;11168;56.976;24.168;2023-05-07T04:11:37;3.90;;;1.73;;
22007;SDS011;11168;56.976;24.168;2023-05-07T04:14:06;5.90;;;2.55;;
22007;SDS011;11168;56.976;24.168;2023-05-07T04:16:34;3.75;;;2.60;;
22007;SDS011;11168;56.976;24.168;2023-05-07T04:19:01;6.80;;;2.10;;
22007;SDS011;11168;56.976;24.168;2023-05-07T04:21:29;4.60;;;2.28;;
22007;SDS011;11168;56.976;24.168;2023-05-07T04:23:57;4.22;;;2.10;;
22007;SDS011;11168;56.976;24.168;2023-05-07T04:26:24;6.65;;;2.75;;
22007;SDS011;11168;56.976;24.168;2023-05-07T04:28:51;6.30;;;2.25;;
22007;SDS011;11168;56.976;24.168;2023-05-07T04:31:19;4.63;;;2.38;;
22007;SDS011;11168;56.976;24.168;2023-05-07T04:33:48;6.88;;;2.30;;
22007;SDS011;11168;56.976;24.168;2023-05-07T04:36:15;4.18;;;2.20;;
22007;SDS011;11168;56.976;24.168;2023-05-07T04:38:42;6.38;;;2.55;;
22007;SDS011;11168;56.976;24.168;2023-05-07T04:41:12;5.75;;;2.40;;
22007;SDS011;11168;56.976;24.168;2023-05-07T04:43:40;8.13;;;2.67;;
22007;SDS011;11168;56.976;24.168;2023-05-07T04:46:07;4.40;;;2.72;;
22007;SDS011;11168;56.976;24.168;2023-05-07T04:48:35;5.95;;;3.13;;
22007;SDS011;11168;56.976;24.168;2023-05-07T04:51:02;8.05;;;3.00;;
22007;SDS011;11168;56.976;24.168;2023-05-07T04:53:30;7.70;;;3.00;;
22007;SDS011;11168;56.976;24.168;2023-05-07T04:55:57;6.07;;;3.03;;
22007;SDS011;11168;56.976;24.168;2023-05-07T04:58:24;4.22;;;2.75;;
22007;SDS011;11168;56.976;24.168;2023-05-07T05:00:52;5.38;;;2.92;;
22007;SDS011;11168;56.976;24.168;2023-05-07T05:03:19;6.07;;;2.92;;
22007;SDS011;11168;56.976;24.168;2023-05-07T05:05:48;4.65;;;2.95;;
22007;SDS011;11168;56.976;24.168;2023-05-07T05:08:15;5.13;;;2.92;;
22007;SDS011;11168;56.976;24.168;2023-05-07T05:10:43;4.68;;;2.45;;
22007;SDS011;11168;56.976;24.168;2023-05-07T05:13:10;5.05;;;2.97;;
22007;SDS011;11168;56.976;24.168;2023-05-07T05:15:39;4.63;;;2.60;;
22007;SDS011;11168;56.976;24.168;2023-05-07T05:18:06;5.40;;;2.80;;
22007;SDS011;11168;56.976;24.168;2023-05-07T05:20:34;7.18;;;2.67;;
22007;SDS011;11168;56.976;24.168;2023-05-07T05:23:01;6.60;;;2.60;;
22007;SDS011;11168;56.976;24.168;2023-05-07T05:25:28;3.53;;;2.30;;
22007;SDS011;11168;56.976;24.168;2023-05-07T05:27:55;8.85;;;2.53;;
22007;SDS011;11168;56.976;24.168;2023-05-07T05:30:23;3.50;;;2.55;;
22007;SDS011;11168;56.976;24.168;2023-05-07T05:32:50;7.25;;;2.58;;
22007;SDS011;11168;56.976;24.168;2023-05-07T05:35:18;7.88;;;3.05;;
22007;SDS011;11168;56.976;24.168;2023-05-07T05:37:45;10.85;;;3.38;;
22007;SDS011;11168;56.976;24.168;2023-05-07T05:40:13;6.10;;;2.70;;
22007;SDS011;11168;56.976;24.168;2023-05-07T05:42:40;5.28;;;2.40;;
22007;SDS011;11168;56.976;24.168;2023-05-07T05:45:07;5.40;;;2.85;;
22007;SDS011;11168;56.976;24.168;2023-05-07T05:47:35;5.40;;;2.20;;
22007;SDS011;11168;56.976;24.168;2023-05-07T05:50:02;5.07;;;2.45;;
22007;SDS011;11168;56.976;24.168;2023-05-07T05:52:31;5.90;;;2.50;;
22007;SDS011;11168;56.976;24.168;2023-05-07T05:54:58;5.43;;;2.20;;
22007;SDS011;11168;56.976;24.168;2023-05-07T05:57:25;4.78;;;2.38;;
22007;SDS011;11168;56.976;24.168;2023-05-07T05:59:54;3.72;;;2.00;;
22007;SDS011;11168;56.976;24.168;2023-05-07T06:02:21;5.22;;;2.42;;
22007;SDS011;11168;56.976;24.168;2023-05-07T06:04:49;3.53;;;2.40;;
22007;SDS011;11168;56.976;24.168;2023-05-07T06:07:16;2.80;;;2.08;;
22007;SDS011;11168;56.976;24.168;2023-05-07T06:09:43;3.20;;;1.67;;
22007;SDS011;11168;56.976;24.168;2023-05-07T06:12:11;3.42;;;1.90;;
22007;SDS011;11168;56.976;24.168;2023-05-07T06:14:38;2.30;;;1.80;;
22007;SDS011;11168;56.976;24.168;2023-05-07T06:17:07;6.50;;;1.85;;
22007;SDS011;11168;56.976;24.168;2023-05-07T06:19:34;4.57;;;1.80;;
22007;SDS011;11168;56.976;24.168;2023-05-07T06:22:01;4.63;;;1.63;;
22007;SDS011;11168;56.976;24.168;2023-05-07T06:24:29;3.42;;;1.98;;
22007;SDS011;11168;56.976;24.168;2023-05-07T06:26:56;9.77;;;3.30;;
22007;SDS011;11168;56.976;24.168;2023-05-07T06:29:24;5.70;;;3.25;;
22007;SDS011;11168;56.976;24.168;2023-05-07T06:31:52;4.07;;;1.83;;
22007;SDS011;11168;56.976;24.168;2023-05-07T06:34:20;3.40;;;1.80;;
22007;SDS011;11168;56.976;24.168;2023-05-07T06:36:47;2.80;;;1.83;;
22007;SDS011;11168;56.976;24.168;2023-05-07T06:39:15;2.90;;;1.73;;
22007;SDS011;11168;56.976;24.168;2023-05-07T06:41:42;4.65;;;2.03;;
22007;SDS011;11168;56.976;24.168;2023-05-07T06:44:09;2.53;;;1.60;;
22007;SDS011;11168;56.976;24.168;2023-05-07T06:46:37;3.08;;;1.70;;
22007;SDS011;11168;56.976;24.168;2023-05-07T06:49:04;4.88;;;1.80;;
22007;SDS011;11168;56.976;24.168;2023-05-07T06:51:31;3.50;;;1.70;;
22007;SDS011;11168;56.976;24.168;2023-05-07T06:53:59;3.40;;;1.58;;
22007;SDS011;11168;56.976;24.168;2023-05-07T06:56:26;1.90;;;1.23;;
22007;SDS011;11168;56.976;24.168;2023-05-07T06:58:53;3.10;;;1.38;;
22007;SDS011;11168;56.976;24.168;2023-05-07T07:01:21;4.63;;;1.50;;
22007;SDS011;11168;56.976;24.168;2023-05-07T07:03:48;1.42;;;1.00;;
22007;SDS011;11168;56.976;24.168;2023-05-07T07:06:17;2.60;;;1.25;;
22007;SDS011;11168;56.976;24.168;2023-05-07T07:08:44;2.83;;;1.20;;
22007;SDS011;11168;56.976;24.168;2023-05-07T07:11:12;2.33;;;1.40;;
22007;SDS011;11168;56.976;24.168;2023-05-07T07:13:39;2.13;;;1.40;;
22007;SDS011;11168;56.976;24.168;2023-05-07T07:16:06;2.10;;;1.30;;
22007;SDS011;11168;56.976;24.168;2023-05-07T07:18:34;2.45;;;1.27;;
22007;SDS011;11168;56.976;24.168;2023-05-07T07:21:02;3.17;;;1.40;;
22007;SDS011;11168;56.976;24.168;2023-05-07T07:23:29;1.95;;;1.40;;
22007;SDS011;11168;56.976;24.168;2023-05-07T07:25:56;3.17;;;1.83;;
22007;SDS011;11168;56.976;24.168;2023-05-07T07:28:24;2.88;;;1.00;;
22007;SDS011;11168;56.976;24.168;2023-05-07T07:30:51;3.45;;;0.90;;
22007;SDS011;11168;56.976;24.168;2023-05-07T07:33:18;3.22;;;1.30;;
22007;SDS011;11168;56.976;24.168;2023-05-07T07:35:45;1.55;;;1.00;;
22007;SDS011;11168;56.976;24.168;2023-05-07T07:38:13;1.38;;;1.05;;
22007;SDS011;11168;56.976;24.168;2023-05-07T07:40:40;2.20;;;1.00;;
22007;SDS011;11168;56.976;24.168;2023-05-07T07:43:07;0.90;;;0.73;;
22007;SDS011;11168;56.976;24.168;2023-05-07T07:45:35;1.98;;;1.13;;
22007;SDS011;11168;56.976;24.168;2023-05-07T07:48:02;2.58;;;0.98;;
22007;SDS011;11168;56.976;24.168;2023-05-07T07:50:30;1.55;;;1.00;;
22007;SDS011;11168;56.976;24.168;2023-05-07T07:53:10;2.20;;;1.00;;
22007;SDS011;11168;56.976;24.168;2023-05-07T07:55:40;1.00;;;0.90;;
22007;SDS011;11168;56.976;24.168;2023-05-07T07:58:07;1.42;;;1.02;;
22007;SDS011;11168;56.976;24.168;2023-05-07T08:00:34;4.10;;;1.20;;
22007;SDS011;11168;56.976;24.168;2023-05-07T08:03:02;1.73;;;1.13;;
22007;SDS011;11168;56.976;24.168;2023-05-07T08:05:29;1.38;;;1.13;;
22007;SDS011;11168;56.976;24.168;2023-05-07T08:07:57;2.38;;;1.10;;
22007;SDS011;11168;56.976;24.168;2023-05-07T08:10:24;7.63;;;1.17;;
22007;SDS011;11168;56.976;24.168;2023-05-07T08:12:52;1.92;;;1.00;;
22007;SDS011;11168;56.976;24.168;2023-05-07T08:15:19;1.85;;;0.85;;
22007;SDS011;11168;56.976;24.168;2023-05-07T08:17:46;1.20;;;1.00;;
22007;SDS011;11168;56.976;24.168;2023-05-07T08:20:14;1.92;;;0.85;;
22007;SDS011;11168;56.976;24.168;2023-05-07T08:22:41;2.65;;;0.90;;
22007;SDS011;11168;56.976;24.168;2023-05-07T08:25:08;2.20;;;1.02;;
22007;SDS011;11168;56.976;24.168;2023-05-07T08:27:36;1.17;;;1.08;;
22007;SDS011;11168;56.976;24.168;2023-05-07T08:30:03;2.30;;;1.23;;
22007;SDS011;11168;56.976;24.168;2023-05-07T08:32:31;3.30;;;1.10;;
22007;SDS011;11168;56.976;24.168;2023-05-07T08:34:59;2.67;;;0.88;;
22007;SDS011;11168;56.976;24.168;2023-05-07T08:37:27;3.72;;;1.10;;
22007;SDS011;11168;56.976;24.168;2023-05-07T08:39:54;4.75;;;1.02;;
22007;SDS011;11168;56.976;24.168;2023-05-07T08:42:23;2.15;;;1.00;;
22007;SDS011;11168;56.976;24.168;2023-05-07T08:44:51;1.52;;;1.08;;
22007;SDS011;11168;56.976;24.168;2023-05-07T08:47:22;2.17;;;1.13;;
22007;SDS011;11168;56.976;24.168;2023-05-07T08:49:54;2.97;;;1.00;;
22007;SDS011;11168;56.976;24.168;2023-05-07T08:52:21;2.63;;;0.95;;
22007;SDS011;11168;56.976;24.168;2023-05-07T08:54:49;2.88;;;1.27;;
22007;SDS011;11168;56.976;24.168;2023-05-07T08:57:17;1.48;;;1.05;;
22007;SDS011;11168;56.976;24.168;2023-05-07T08:59:46;3.22;;;1.02;;
22007;SDS011;11168;56.976;24.168;2023-05-07T09:02:14;4.05;;;0.93;;
22007;SDS011;11168;56.976;24.168;2023-05-07T09:04:42;3.33;;;1.17;;
22007;SDS011;11168;56.976;24.168;2023-05-07T09:07:09;3.53;;;1.10;;
22007;SDS011;11168;56.976;24.168;2023-05-07T09:09:37;3.53;;;0.90;;
22007;SDS011;11168;56.976;24.168;2023-05-07T09:12:04;3.20;;;0.90;;
22007;SDS011;11168;56.976;24.168;2023-05-07T09:14:32;2.47;;;1.02;;
22007;SDS011;11168;56.976;24.168;2023-05-07T09:16:59;2.42;;;1.33;;
22007;SDS011;11168;56.976;24.168;2023-05-07T09:19:27;3.17;;;1.38;;
22007;SDS011;11168;56.976;24.168;2023-05-07T09:22:01;2.15;;;1.23;;
22007;SDS011;11168;56.976;24.168;2023-05-07T09:24:29;1.67;;;0.90;;
22007;SDS011;11168;56.976;24.168;2023-05-07T09:27:01;2.25;;;0.90;;
22007;SDS011;11168;56.976;24.168;2023-05-07T09:29:28;2.60;;;0.98;;
22007;SDS011;11168;56.976;24.168;2023-05-07T09:32:02;2.95;;;1.20;;
22007;SDS011;11168;56.976;24.168;2023-05-07T09:34:29;2.40;;;1.10;;
22007;SDS011;11168;56.976;24.168;2023-05-07T09:36:58;3.58;;;1.05;;
22007;SDS011;11168;56.976;24.168;2023-05-07T09:39:26;5.38;;;1.25;;
22007;SDS011;11168;56.976;24.168;2023-05-07T09:41:53;2.00;;;1.02;;
22007;SDS011;11168;56.976;24.168;2023-05-07T09:44:21;1.63;;;1.17;;
22007;SDS011;11168;56.976;24.168;2023-05-07T09:46:51;2.33;;;1.20;;
22007;SDS011;11168;56.976;24.168;2023-05-07T09:49:22;2.83;;;1.15;;
22007;SDS011;11168;56.976;24.168;2023-05-07T09:51:50;1.63;;;1.02;;
22007;SDS011;11168;56.976;24.168;2023-05-07T09:54:18;2.10;;;1.00;;
22007;SDS011;11168;56.976;24.168;2023-05-07T09:56:45;1.75;;;1.10;;
22007;SDS011;11168;56.976;24.168;2023-05-07T09:59:15;2.40;;;1.20;;
22007;SDS011;11168;56.976;24.168;2023-05-07T10:01:43;4.05;;;1.20;;
22007;SDS011;11168;56.976;24.168;2023-05-07T10:04:11;1.58;;;1.08;;
22007;SDS011;11168;56.976;24.168;2023-05-07T10:06:39;2.38;;;1.20;;
22007;SDS011;11168;56.976;24.168;2023-05-07T10:09:07;2.15;;;1.23;;
22007;SDS011;11168;56.976;24.168;2023-05-07T10:11:36;1.88;;;1.00;;
22007;SDS011;11168;56.976;24.168;2023-05-07T10:14:03;1.30;;;1.00;;
22007;SDS011;11168;56.976;24.168;2023-05-07T10:16:34;2.80;;;1.10;;
22007;SDS011;11168;56.976;24.168;2023-05-07T10:19:03;4.05;;;1.50;;
22007;SDS011;11168;56.976;24.168;2023-05-07T10:21:31;2.08;;;1.40;;
22007;SDS011;11168;56.976;24.168;2023-05-07T10:26:40;3.92;;;1.70;;
22007;SDS011;11168;56.976;24.168;2023-05-07T10:29:14;2.53;;;1.25;;
22007;SDS011;11168;56.976;24.168;2023-05-07T10:34:24;2.80;;;1.40;;
22007;SDS011;11168;56.976;24.168;2023-05-07T10:36:52;1.98;;;1.23;;
22007;SDS011;11168;56.976;24.168;2023-05-07T10:39:21;3.33;;;1.60;;
22007;SDS011;11168;56.976;24.168;2023-05-07T10:41:48;1.80;;;1.30;;
22007;SDS011;11168;56.976;24.168;2023-05-07T10:44:28;2.38;;;1.25;;
22007;SDS011;11168;56.976;24.168;2023-05-07T10:47:12;1.88;;;1.20;;
22007;SDS011;11168;56.976;24.168;2023-05-07T10:52:13;1.88;;;1.27;;
22007;SDS011;11168;56.976;24.168;2023-05-07T10:54:44;2.20;;;1.25;;
22007;SDS011;11168;56.976;24.168;2023-05-07T10:59:57;3.10;;;1.35;;
22007;SDS011;11168;56.976;24.168;2023-05-07T11:03:10;5.80;;;1.40;;
22007;SDS011;11168;56.976;24.168;2023-05-07T11:05:21;5.03;;;1.20;;
22007;SDS011;11168;56.976;24.168;2023-05-07T11:07:55;1.83;;;1.20;;
22007;SDS011;11168;56.976;24.168;2023-05-07T11:10:23;2.90;;;1.30;;
22007;SDS011;11168;56.976;24.168;2023-05-07T11:12:50;1.60;;;1.27;;
22007;SDS011;11168;56.976;24.168;2023-05-07T11:15:35;1.85;;;1.13;;
22007;SDS011;11168;56.976;24.168;2023-05-07T11:18:03;3.67;;;1.10;;
22007;SDS011;11168;56.976;24.168;2023-05-07T11:23:56;3.22;;;1.30;;
22007;SDS011;11168;56.976;24.168;2023-05-07T11:26:07;1.55;;;0.98;;
22007;SDS011;11168;56.976;24.168;2023-05-07T11:28:41;1.55;;;1.10;;
22007;SDS011;11168;56.976;24.168;2023-05-07T11:31:09;1.33;;;1.17;;
22007;SDS011;11168;56.976;24.168;2023-05-07T11:33:37;1.65;;;1.08;;
22007;SDS011;11168;56.976;24.168;2023-05-07T11:36:04;1.92;;;1.40;;
22007;SDS011;11168;56.976;24.168;2023-05-07T11:38:35;3.28;;;1.00;;
22007;SDS011;11168;56.976;24.168;2023-05-07T11:41:03;4.43;;;1.05;;
22007;SDS011;11168;56.976;24.168;2023-05-07T11:43:33;7.33;;;1.07;;
22007;SDS011;11168;56.976;24.168;2023-05-07T11:46:09;6.07;;;1.73;;
22007;SDS011;11168;56.976;24.168;2023-05-07T11:48:37;4.85;;;1.30;;
22007;SDS011;11168;56.976;24.168;2023-05-07T11:51:05;2.20;;;1.20;;
22007;SDS011;11168;56.976;24.168;2023-05-07T11:53:39;2.95;;;1.58;;
22007;SDS011;11168;56.976;24.168;2023-05-07T11:56:07;3.65;;;0.90;;
22007;SDS011;11168;56.976;24.168;2023-05-07T11:58:35;1.30;;;1.10;;
22007;SDS011;11168;56.976;24.168;2023-05-07T12:01:02;1.10;;;0.93;;
22007;SDS011;11168;56.976;24.168;2023-05-07T12:03:30;2.42;;;1.10;;
22007;SDS011;11168;56.976;24.168;2023-05-07T12:06:05;3.95;;;1.20;;
22007;SDS011;11168;56.976;24.168;2023-05-07T12:08:33;1.92;;;1.20;;
22007;SDS011;11168;56.976;24.168;2023-05-07T12:11:00;1.90;;;1.13;;
22007;SDS011;11168;56.976;24.168;2023-05-07T12:13:27;4.18;;;1.10;;
22007;SDS011;11168;56.976;24.168;2023-05-07T12:15:55;4.65;;;1.10;;
22007;SDS011;11168;56.976;24.168;2023-05-07T12:18:22;3.70;;;1.27;;
22007;SDS011;11168;56.976;24.168;2023-05-07T12:20:50;1.75;;;1.30;;
22007;SDS011;11168;56.976;24.168;2023-05-07T12:23:17;3.88;;;1.17;;
22007;SDS011;11168;56.976;24.168;2023-05-07T12:25:45;4.50;;;1.55;;
22007;SDS011;11168;56.976;24.168;2023-05-07T12:28:15;5.78;;;1.30;;
22007;SDS011;11168;56.976;24.168;2023-05-07T12:30:43;1.52;;;1.10;;
22007;SDS011;11168;56.976;24.168;2023-05-07T12:33:11;2.05;;;1.00;;
22007;SDS011;11168;56.976;24.168;2023-05-07T12:35:42;3.97;;;1.33;;
22007;SDS011;11168;56.976;24.168;2023-05-07T12:38:16;3.35;;;1.30;;
22007;SDS011;11168;56.976;24.168;2023-05-07T12:40:44;2.53;;;1.00;;
22007;SDS011;11168;56.976;24.168;2023-05-07T12:43:23;2.08;;;1.23;;
22007;SDS011;11168;56.976;24.168;2023-05-07T12:45:53;2.08;;;1.30;;
22007;SDS011;11168;56.976;24.168;2023-05-07T12:48:21;4.10;;;1.10;;
22007;SDS011;11168;56.976;24.168;2023-05-07T12:50:55;2.53;;;1.27;;
22007;SDS011;11168;56.976;24.168;2023-05-07T12:53:23;3.15;;;1.20;;
22007;SDS011;11168;56.976;24.168;2023-05-07T12:55:52;2.70;;;1.35;;
22007;SDS011;11168;56.976;24.168;2023-05-07T12:58:20;2.53;;;1.23;;
22007;SDS011;11168;56.976;24.168;2023-05-07T13:00:49;3.35;;;1.23;;
22007;SDS011;11168;56.976;24.168;2023-05-07T13:03:23;3.33;;;1.30;;
22007;SDS011;11168;56.976;24.168;2023-05-07T13:05:51;2.17;;;1.30;;
22007;SDS011;11168;56.976;24.168;2023-05-07T13:10:56;3.17;;;1.10;;
22007;SDS011;11168;56.976;24.168;2023-05-07T13:13:23;3.00;;;1.25;;
22007;SDS011;11168;56.976;24.168;2023-05-07T13:15:51;3.28;;;1.20;;
22007;SDS011;11168;56.976;24.168;2023-05-07T13:18:18;2.75;;;1.20;;
22007;SDS011;11168;56.976;24.168;2023-05-07T13:20:46;3.25;;;1.25;;
22007;SDS011;11168;56.976;24.168;2023-05-07T13:23:13;2.65;;;1.02;;
22007;SDS011;11168;56.976;24.168;2023-05-07T13:25:41;1.95;;;1.15;;
22007;SDS011;11168;56.976;24.168;2023-05-07T13:28:08;6.13;;;1.50;;
22007;SDS011;11168;56.976;24.168;2023-05-07T13:30:37;2.33;;;1.40;;
22007;SDS011;11168;56.976;24.168;2023-05-07T13:33:04;2.45;;;1.42;;
22007;SDS011;11168;56.976;24.168;2023-05-07T13:35:31;3.40;;;1.30;;
22007;SDS011;11168;56.976;24.168;2023-05-07T13:37:59;2.15;;;1.30;;
22007;SDS011;11168;56.976;24.168;2023-05-07T13:40:26;2.55;;;1.20;;
22007;SDS011;11168;56.976;24.168;2023-05-07T13:42:53;1.30;;;1.13;;
22007;SDS011;11168;56.976;24.168;2023-05-07T13:45:21;1.92;;;1.20;;
22007;SDS011;11168;56.976;24.168;2023-05-07T13:47:52;3.78;;;1.25;;
22007;SDS011;11168;56.976;24.168;2023-05-07T13:50:19;2.88;;;1.30;;
22007;SDS011;11168;56.976;24.168;2023-05-07T13:52:46;10.18;;;1.60;;
22007;SDS011;11168;56.976;24.168;2023-05-07T13:55:17;6.37;;;1.50;;
22007;SDS011;11168;56.976;24.168;2023-05-07T13:57:45;2.83;;;1.35;;
22007;SDS011;11168;56.976;24.168;2023-05-07T14:00:12;2.17;;;1.27;;
22007;SDS011;11168;56.976;24.168;2023-05-07T14:02:40;6.15;;;1.50;;
22007;SDS011;11168;56.976;24.168;2023-05-07T14:05:08;5.35;;;1.48;;
22007;SDS011;11168;56.976;24.168;2023-05-07T14:07:36;3.80;;;1.20;;
22007;SDS011;11168;56.976;24.168;2023-05-07T14:10:04;2.90;;;1.20;;
22007;SDS011;11168;56.976;24.168;2023-05-07T14:12:32;1.73;;;1.20;;
22007;SDS011;11168;56.976;24.168;2023-05-07T14:14:59;2.95;;;1.33;;
22007;SDS011;11168;56.976;24.168;2023-05-07T14:17:27;3.63;;;1.30;;
22007;SDS011;11168;56.976;24.168;2023-05-07T14:19:54;2.30;;;1.38;;
22007;SDS011;11168;56.976;24.168;2023-05-07T14:22:22;4.07;;;1.33;;
22007;SDS011;11168;56.976;24.168;2023-05-07T14:24:49;4.80;;;1.75;;
22007;SDS011;11168;56.976;24.168;2023-05-07T14:27:31;2.67;;;0.93;;
22007;SDS011;11168;56.976;24.168;2023-05-07T14:29:58;2.78;;;1.60;;
22007;SDS011;11168;56.976;24.168;2023-05-07T14:32:26;3.70;;;1.60;;
22007;SDS011;11168;56.976;24.168;2023-05-07T14:34:53;3.33;;;1.30;;
22007;SDS011;11168;56.976;24.168;2023-05-07T14:37:20;4.35;;;1.45;;
22007;SDS011;11168;56.976;24.168;2023-05-07T14:39:47;2.10;;;1.33;;
22007;SDS011;11168;56.976;24.168;2023-05-07T14:42:16;2.08;;;1.40;;
22007;SDS011;11168;56.976;24.168;2023-05-07T14:44:43;4.25;;;1.33;;
22007;SDS011;11168;56.976;24.168;2023-05-07T14:47:12;7.10;;;1.20;;
22007;SDS011;11168;56.976;24.168;2023-05-07T14:49:42;2.97;;;1.27;;
22007;SDS011;11168;56.976;24.168;2023-05-07T14:52:09;4.30;;;1.40;;
22007;SDS011;11168;56.976;24.168;2023-05-07T14:54:37;3.15;;;1.20;;